Coaldale, West Virginia
Current Conditions -  °F | °C
As of 9:52 AM on Sunday 21 Dec 2014 (Local Time) from KBLF Reporting Station
Clear Clear  
Wind Chill: 37°   Ceiling: Unl
Heat Index: 37°   Visibility: 10mi
Dew Point: 24°   Wind: 0mph
Humidity: 59%   Direction: NA
Pressure: 30.23"   Gusts: NA
Location:  37.3633°N, 81.3346°W
Report Text: KBLF 211452Z AUTO 00000KT 10SM CLR 03/M04 A3023 RMK AO2 SLP248 T00281044 51008
Loading
Personal Weather Stations






























Interactive Weather Map New forecast layout! Learn more

10-Day Weather Forecast

Advertisements
Track Severe Weather on mobile